sensor_id;sensor_type;location;lat;lon;timestamp;P1;durP1;ratioP1;P2;durP2;ratioP2
43744;SDS011;29359;53.048;8.732;2023-07-20T00:01:56;5.07;;;1.10;;
43744;SDS011;29359;53.048;8.732;2023-07-20T00:03:59;1.67;;;0.90;;
43744;SDS011;29359;53.048;8.732;2023-07-20T00:06:01;2.55;;;1.10;;
43744;SDS011;29359;53.048;8.732;2023-07-20T00:08:05;1.40;;;1.15;;
43744;SDS011;29359;53.048;8.732;2023-07-20T00:10:09;1.30;;;1.20;;
43744;SDS011;29359;53.048;8.732;2023-07-20T00:12:13;1.45;;;1.05;;
43744;SDS011;29359;53.048;8.732;2023-07-20T00:14:16;1.23;;;1.13;;
43744;SDS011;29359;53.048;8.732;2023-07-20T00:16:19;1.48;;;1.08;;
43744;SDS011;29359;53.048;8.732;2023-07-20T00:18:22;1.88;;;0.98;;
43744;SDS011;29359;53.048;8.732;2023-07-20T00:20:25;6.15;;;1.30;;
43744;SDS011;29359;53.048;8.732;2023-07-20T00:22:28;2.05;;;0.90;;
43744;SDS011;29359;53.048;8.732;2023-07-20T00:24:31;2.15;;;1.17;;
43744;SDS011;29359;53.048;8.732;2023-07-20T00:26:36;1.35;;;1.00;;
43744;SDS011;29359;53.048;8.732;2023-07-20T00:28:39;2.50;;;0.98;;
43744;SDS011;29359;53.048;8.732;2023-07-20T00:30:41;4.40;;;0.90;;
43744;SDS011;29359;53.048;8.732;2023-07-20T00:32:43;1.02;;;0.93;;
43744;SDS011;29359;53.048;8.732;2023-07-20T00:34:47;0.80;;;0.80;;
43744;SDS011;29359;53.048;8.732;2023-07-20T00:36:49;1.85;;;1.23;;
43744;SDS011;29359;53.048;8.732;2023-07-20T00:38:52;4.40;;;1.38;;
43744;SDS011;29359;53.048;8.732;2023-07-20T00:40:55;0.80;;;0.80;;
43744;SDS011;29359;53.048;8.732;2023-07-20T00:42:59;5.30;;;0.90;;
43744;SDS011;29359;53.048;8.732;2023-07-20T00:45:02;3.42;;;1.08;;
43744;SDS011;29359;53.048;8.732;2023-07-20T00:47:06;1.80;;;1.05;;
43744;SDS011;29359;53.048;8.732;2023-07-20T00:49:09;2.20;;;1.05;;
43744;SDS011;29359;53.048;8.732;2023-07-20T00:51:12;1.73;;;1.50;;
43744;SDS011;29359;53.048;8.732;2023-07-20T00:53:15;2.90;;;1.48;;
43744;SDS011;29359;53.048;8.732;2023-07-20T00:55:18;1.38;;;1.27;;
43744;SDS011;29359;53.048;8.732;2023-07-20T00:57:29;1.70;;;1.33;;
43744;SDS011;29359;53.048;8.732;2023-07-20T00:59:33;1.90;;;1.60;;
43744;SDS011;29359;53.048;8.732;2023-07-20T01:01:37;3.97;;;1.50;;
43744;SDS011;29359;53.048;8.732;2023-07-20T01:03:40;2.17;;;1.70;;
43744;SDS011;29359;53.048;8.732;2023-07-20T01:05:51;1.73;;;1.63;;
43744;SDS011;29359;53.048;8.732;2023-07-20T01:07:59;1.90;;;1.80;;
43744;SDS011;29359;53.048;8.732;2023-07-20T01:10:06;1.88;;;1.67;;
43744;SDS011;29359;53.048;8.732;2023-07-20T01:12:13;2.42;;;1.50;;
43744;SDS011;29359;53.048;8.732;2023-07-20T01:14:24;1.67;;;1.40;;
43744;SDS011;29359;53.048;8.732;2023-07-20T01:16:28;1.40;;;1.30;;
43744;SDS011;29359;53.048;8.732;2023-07-20T01:18:31;2.35;;;1.45;;
43744;SDS011;29359;53.048;8.732;2023-07-20T01:20:34;1.50;;;1.40;;
43744;SDS011;29359;53.048;8.732;2023-07-20T01:22:44;1.50;;;1.40;;
43744;SDS011;29359;53.048;8.732;2023-07-20T01:25:07;1.20;;;1.10;;
43744;SDS011;29359;53.048;8.732;2023-07-20T01:30:06;2.05;;;1.25;;
43744;SDS011;29359;53.048;8.732;2023-07-20T01:32:19;1.52;;;1.38;;
43744;SDS011;29359;53.048;8.732;2023-07-20T01:34:26;1.60;;;1.50;;
43744;SDS011;29359;53.048;8.732;2023-07-20T01:36:30;1.40;;;1.30;;
43744;SDS011;29359;53.048;8.732;2023-07-20T01:38:35;1.50;;;1.40;;
43744;SDS011;29359;53.048;8.732;2023-07-20T01:40:39;1.33;;;1.23;;
43744;SDS011;29359;53.048;8.732;2023-07-20T01:42:43;1.80;;;1.40;;
43744;SDS011;29359;53.048;8.732;2023-07-20T01:44:47;1.17;;;1.08;;
43744;SDS011;29359;53.048;8.732;2023-07-20T01:46:50;1.67;;;1.40;;
43744;SDS011;29359;53.048;8.732;2023-07-20T01:48:54;1.05;;;1.05;;
43744;SDS011;29359;53.048;8.732;2023-07-20T01:50:57;1.80;;;1.10;;
43744;SDS011;29359;53.048;8.732;2023-07-20T01:53:00;2.22;;;1.88;;
43744;SDS011;29359;53.048;8.732;2023-07-20T01:55:03;1.20;;;1.10;;
43744;SDS011;29359;53.048;8.732;2023-07-20T01:57:07;1.00;;;0.90;;
43744;SDS011;29359;53.048;8.732;2023-07-20T01:59:09;1.00;;;0.90;;
43744;SDS011;29359;53.048;8.732;2023-07-20T02:01:12;0.80;;;0.80;;
43744;SDS011;29359;53.048;8.732;2023-07-20T02:03:15;1.95;;;1.00;;
43744;SDS011;29359;53.048;8.732;2023-07-20T02:05:19;1.17;;;0.80;;
43744;SDS011;29359;53.048;8.732;2023-07-20T02:07:21;1.95;;;0.80;;
43744;SDS011;29359;53.048;8.732;2023-07-20T02:09:24;0.90;;;0.80;;
43744;SDS011;29359;53.048;8.732;2023-07-20T02:11:27;1.00;;;0.90;;
43744;SDS011;29359;53.048;8.732;2023-07-20T02:13:29;0.75;;;0.75;;
43744;SDS011;29359;53.048;8.732;2023-07-20T02:15:32;0.70;;;0.68;;
43744;SDS011;29359;53.048;8.732;2023-07-20T02:17:35;1.25;;;0.80;;
43744;SDS011;29359;53.048;8.732;2023-07-20T02:19:40;1.75;;;0.90;;
43744;SDS011;29359;53.048;8.732;2023-07-20T02:21:44;0.93;;;0.60;;
43744;SDS011;29359;53.048;8.732;2023-07-20T02:23:47;1.42;;;0.70;;
43744;SDS011;29359;53.048;8.732;2023-07-20T02:25:50;0.90;;;0.80;;
43744;SDS011;29359;53.048;8.732;2023-07-20T02:27:53;1.10;;;0.70;;
43744;SDS011;29359;53.048;8.732;2023-07-20T02:29:56;0.75;;;0.75;;
43744;SDS011;29359;53.048;8.732;2023-07-20T02:31:59;0.98;;;0.73;;
43744;SDS011;29359;53.048;8.732;2023-07-20T02:34:01;0.68;;;0.60;;
43744;SDS011;29359;53.048;8.732;2023-07-20T02:36:04;3.67;;;0.82;;
43744;SDS011;29359;53.048;8.732;2023-07-20T02:38:08;1.10;;;0.65;;
43744;SDS011;29359;53.048;8.732;2023-07-20T02:40:11;0.52;;;0.52;;
43744;SDS011;29359;53.048;8.732;2023-07-20T02:42:14;1.45;;;0.70;;
43744;SDS011;29359;53.048;8.732;2023-07-20T02:44:17;0.85;;;0.60;;
43744;SDS011;29359;53.048;8.732;2023-07-20T02:46:20;1.08;;;1.00;;
43744;SDS011;29359;53.048;8.732;2023-07-20T02:48:23;0.50;;;0.50;;
43744;SDS011;29359;53.048;8.732;2023-07-20T02:50:26;2.35;;;0.60;;
43744;SDS011;29359;53.048;8.732;2023-07-20T02:52:28;1.17;;;0.70;;
43744;SDS011;29359;53.048;8.732;2023-07-20T02:54:32;1.08;;;0.85;;
43744;SDS011;29359;53.048;8.732;2023-07-20T02:56:35;3.53;;;0.98;;
43744;SDS011;29359;53.048;8.732;2023-07-20T02:58:40;1.65;;;0.75;;
43744;SDS011;29359;53.048;8.732;2023-07-20T03:00:44;2.58;;;0.80;;
43744;SDS011;29359;53.048;8.732;2023-07-20T03:02:47;0.70;;;0.70;;
43744;SDS011;29359;53.048;8.732;2023-07-20T03:04:50;0.70;;;0.70;;
43744;SDS011;29359;53.048;8.732;2023-07-20T03:06:52;2.05;;;0.73;;
43744;SDS011;29359;53.048;8.732;2023-07-20T03:08:55;2.67;;;0.80;;
43744;SDS011;29359;53.048;8.732;2023-07-20T03:10:59;1.08;;;0.80;;
43744;SDS011;29359;53.048;8.732;2023-07-20T03:13:02;1.50;;;1.00;;
43744;SDS011;29359;53.048;8.732;2023-07-20T03:15:06;1.38;;;0.75;;
43744;SDS011;29359;53.048;8.732;2023-07-20T03:17:09;1.60;;;0.90;;
43744;SDS011;29359;53.048;8.732;2023-07-20T03:19:12;1.23;;;0.93;;
43744;SDS011;29359;53.048;8.732;2023-07-20T03:21:14;2.50;;;0.90;;
43744;SDS011;29359;53.048;8.732;2023-07-20T03:23:17;1.52;;;0.88;;
43744;SDS011;29359;53.048;8.732;2023-07-20T03:25:19;1.10;;;0.93;;
43744;SDS011;29359;53.048;8.732;2023-07-20T03:27:24;1.45;;;0.95;;
43744;SDS011;29359;53.048;8.732;2023-07-20T03:29:26;2.83;;;0.85;;
43744;SDS011;29359;53.048;8.732;2023-07-20T03:31:28;0.98;;;0.98;;
43744;SDS011;29359;53.048;8.732;2023-07-20T03:33:31;2.65;;;1.33;;
43744;SDS011;29359;53.048;8.732;2023-07-20T03:35:34;0.98;;;0.95;;
43744;SDS011;29359;53.048;8.732;2023-07-20T03:37:37;1.10;;;1.00;;
43744;SDS011;29359;53.048;8.732;2023-07-20T03:39:40;2.90;;;1.10;;
43744;SDS011;29359;53.048;8.732;2023-07-20T03:41:43;2.45;;;1.10;;
43744;SDS011;29359;53.048;8.732;2023-07-20T03:43:47;0.95;;;0.95;;
43744;SDS011;29359;53.048;8.732;2023-07-20T03:45:50;1.05;;;1.05;;
43744;SDS011;29359;53.048;8.732;2023-07-20T03:47:53;1.60;;;1.27;;
43744;SDS011;29359;53.048;8.732;2023-07-20T03:49:56;2.90;;;1.45;;
43744;SDS011;29359;53.048;8.732;2023-07-20T03:51:59;1.35;;;1.23;;
43744;SDS011;29359;53.048;8.732;2023-07-20T03:54:04;2.13;;;1.45;;
43744;SDS011;29359;53.048;8.732;2023-07-20T03:56:07;3.25;;;1.17;;
43744;SDS011;29359;53.048;8.732;2023-07-20T03:58:10;1.30;;;1.10;;
43744;SDS011;29359;53.048;8.732;2023-07-20T04:00:13;1.40;;;1.30;;
43744;SDS011;29359;53.048;8.732;2023-07-20T04:02:17;3.38;;;1.40;;
43744;SDS011;29359;53.048;8.732;2023-07-20T04:04:20;1.63;;;1.38;;
43744;SDS011;29359;53.048;8.732;2023-07-20T04:06:23;3.10;;;1.38;;
43744;SDS011;29359;53.048;8.732;2023-07-20T04:08:26;1.40;;;1.30;;
43744;SDS011;29359;53.048;8.732;2023-07-20T04:10:29;2.08;;;1.40;;
43744;SDS011;29359;53.048;8.732;2023-07-20T04:12:32;2.55;;;1.45;;
43744;SDS011;29359;53.048;8.732;2023-07-20T04:14:34;1.65;;;1.55;;
43744;SDS011;29359;53.048;8.732;2023-07-20T04:16:39;3.42;;;1.30;;
43744;SDS011;29359;53.048;8.732;2023-07-20T04:18:42;3.90;;;1.58;;
43744;SDS011;29359;53.048;8.732;2023-07-20T04:20:44;3.47;;;1.60;;
43744;SDS011;29359;53.048;8.732;2023-07-20T04:22:48;1.88;;;1.73;;
43744;SDS011;29359;53.048;8.732;2023-07-20T04:24:51;5.63;;;1.88;;
43744;SDS011;29359;53.048;8.732;2023-07-20T04:26:53;2.45;;;1.55;;
43744;SDS011;29359;53.048;8.732;2023-07-20T04:28:56;1.50;;;1.40;;
43744;SDS011;29359;53.048;8.732;2023-07-20T04:31:09;2.17;;;1.40;;
43744;SDS011;29359;53.048;8.732;2023-07-20T04:33:13;1.45;;;1.35;;
43744;SDS011;29359;53.048;8.732;2023-07-20T04:35:17;3.05;;;1.63;;
43744;SDS011;29359;53.048;8.732;2023-07-20T04:37:40;3.20;;;1.50;;
43744;SDS011;29359;53.048;8.732;2023-07-20T04:39:46;5.65;;;2.13;;
43744;SDS011;29359;53.048;8.732;2023-07-20T04:41:48;3.00;;;1.70;;
43744;SDS011;29359;53.048;8.732;2023-07-20T04:43:51;1.67;;;1.58;;
43744;SDS011;29359;53.048;8.732;2023-07-20T04:45:54;2.75;;;1.48;;
43744;SDS011;29359;53.048;8.732;2023-07-20T04:47:56;2.05;;;1.50;;
43744;SDS011;29359;53.048;8.732;2023-07-20T04:50:01;1.88;;;1.55;;
43744;SDS011;29359;53.048;8.732;2023-07-20T04:52:04;1.88;;;1.70;;
43744;SDS011;29359;53.048;8.732;2023-07-20T04:54:07;3.08;;;1.90;;
43744;SDS011;29359;53.048;8.732;2023-07-20T04:56:10;2.75;;;1.52;;
43744;SDS011;29359;53.048;8.732;2023-07-20T04:58:13;2.88;;;1.55;;
43744;SDS011;29359;53.048;8.732;2023-07-20T05:00:16;1.98;;;1.83;;
43744;SDS011;29359;53.048;8.732;2023-07-20T05:02:20;1.80;;;1.70;;
43744;SDS011;29359;53.048;8.732;2023-07-20T05:04:23;2.42;;;1.63;;
43744;SDS011;29359;53.048;8.732;2023-07-20T05:06:31;5.60;;;1.60;;
43744;SDS011;29359;53.048;8.732;2023-07-20T05:08:34;3.63;;;1.80;;
43744;SDS011;29359;53.048;8.732;2023-07-20T05:10:36;4.75;;;1.75;;
43744;SDS011;29359;53.048;8.732;2023-07-20T05:12:39;2.45;;;1.70;;
43744;SDS011;29359;53.048;8.732;2023-07-20T05:14:42;2.90;;;1.67;;
43744;SDS011;29359;53.048;8.732;2023-07-20T05:16:45;2.17;;;1.52;;
43744;SDS011;29359;53.048;8.732;2023-07-20T05:18:48;1.92;;;1.67;;
43744;SDS011;29359;53.048;8.732;2023-07-20T05:20:51;6.57;;;1.60;;
43744;SDS011;29359;53.048;8.732;2023-07-20T05:22:55;3.10;;;1.50;;
43744;SDS011;29359;53.048;8.732;2023-07-20T05:24:58;3.58;;;1.30;;
43744;SDS011;29359;53.048;8.732;2023-07-20T05:27:00;3.15;;;1.63;;
43744;SDS011;29359;53.048;8.732;2023-07-20T05:29:02;3.20;;;1.50;;
43744;SDS011;29359;53.048;8.732;2023-07-20T05:31:05;2.28;;;1.30;;
43744;SDS011;29359;53.048;8.732;2023-07-20T05:33:08;2.50;;;1.40;;
43744;SDS011;29359;53.048;8.732;2023-07-20T05:35:11;2.72;;;1.38;;
43744;SDS011;29359;53.048;8.732;2023-07-20T05:37:15;2.08;;;1.25;;
43744;SDS011;29359;53.048;8.732;2023-07-20T05:39:19;2.75;;;1.42;;
43744;SDS011;29359;53.048;8.732;2023-07-20T05:41:22;2.72;;;1.20;;
43744;SDS011;29359;53.048;8.732;2023-07-20T05:43:25;3.97;;;1.00;;
43744;SDS011;29359;53.048;8.732;2023-07-20T05:45:27;2.25;;;1.08;;
43744;SDS011;29359;53.048;8.732;2023-07-20T05:47:30;1.90;;;1.00;;
43744;SDS011;29359;53.048;8.732;2023-07-20T05:49:33;1.05;;;0.93;;
43744;SDS011;29359;53.048;8.732;2023-07-20T05:51:36;1.58;;;1.00;;
43744;SDS011;29359;53.048;8.732;2023-07-20T05:53:40;3.00;;;1.00;;
43744;SDS011;29359;53.048;8.732;2023-07-20T05:55:44;2.25;;;0.93;;
43744;SDS011;29359;53.048;8.732;2023-07-20T05:57:47;3.67;;;1.00;;
43744;SDS011;29359;53.048;8.732;2023-07-20T05:59:51;1.60;;;0.75;;
43744;SDS011;29359;53.048;8.732;2023-07-20T06:01:53;2.78;;;0.80;;
43744;SDS011;29359;53.048;8.732;2023-07-20T06:03:55;1.15;;;1.02;;
43744;SDS011;29359;53.048;8.732;2023-07-20T06:05:59;1.80;;;0.80;;
43744;SDS011;29359;53.048;8.732;2023-07-20T06:08:03;1.95;;;0.80;;
43744;SDS011;29359;53.048;8.732;2023-07-20T06:10:07;3.22;;;0.80;;
43744;SDS011;29359;53.048;8.732;2023-07-20T06:12:10;0.95;;;0.50;;
43744;SDS011;29359;53.048;8.732;2023-07-20T06:14:13;1.60;;;0.45;;
43744;SDS011;29359;53.048;8.732;2023-07-20T06:16:17;1.52;;;0.57;;
43744;SDS011;29359;53.048;8.732;2023-07-20T06:18:20;1.35;;;0.45;;
43744;SDS011;29359;53.048;8.732;2023-07-20T06:20:23;0.93;;;0.40;;
43744;SDS011;29359;53.048;8.732;2023-07-20T06:22:26;2.45;;;0.77;;
43744;SDS011;29359;53.048;8.732;2023-07-20T06:24:29;2.65;;;0.65;;
43744;SDS011;29359;53.048;8.732;2023-07-20T06:26:32;1.77;;;0.50;;
43744;SDS011;29359;53.048;8.732;2023-07-20T06:28:41;1.67;;;0.60;;
43744;SDS011;29359;53.048;8.732;2023-07-20T06:30:44;1.27;;;0.85;;
43744;SDS011;29359;53.048;8.732;2023-07-20T06:32:46;2.33;;;0.60;;
43744;SDS011;29359;53.048;8.732;2023-07-20T06:34:50;2.35;;;0.43;;
43744;SDS011;29359;53.048;8.732;2023-07-20T06:36:52;1.38;;;0.60;;
43744;SDS011;29359;53.048;8.732;2023-07-20T06:38:55;1.17;;;0.40;;
43744;SDS011;29359;53.048;8.732;2023-07-20T06:41:01;1.88;;;0.65;;
43744;SDS011;29359;53.048;8.732;2023-07-20T06:43:07;0.95;;;0.40;;
43744;SDS011;29359;53.048;8.732;2023-07-20T06:45:14;2.17;;;0.50;;
43744;SDS011;29359;53.048;8.732;2023-07-20T06:47:17;1.00;;;0.50;;
43744;SDS011;29359;53.048;8.732;2023-07-20T06:49:25;1.10;;;0.50;;
43744;SDS011;29359;53.048;8.732;2023-07-20T06:51:28;4.68;;;0.77;;
43744;SDS011;29359;53.048;8.732;2023-07-20T06:53:31;2.15;;;0.40;;
43744;SDS011;29359;53.048;8.732;2023-07-20T06:55:34;1.42;;;0.50;;
43744;SDS011;29359;53.048;8.732;2023-07-20T06:57:43;1.73;;;0.50;;
43744;SDS011;29359;53.048;8.732;2023-07-20T06:59:49;4.07;;;0.55;;
43744;SDS011;29359;53.048;8.732;2023-07-20T07:01:53;1.02;;;0.40;;
43744;SDS011;29359;53.048;8.732;2023-07-20T07:03:57;1.23;;;0.50;;
43744;SDS011;29359;53.048;8.732;2023-07-20T07:06:00;1.83;;;0.52;;
43744;SDS011;29359;53.048;8.732;2023-07-20T07:08:03;3.40;;;0.50;;
43744;SDS011;29359;53.048;8.732;2023-07-20T07:10:07;4.85;;;0.50;;
43744;SDS011;29359;53.048;8.732;2023-07-20T07:12:10;1.58;;;0.40;;
43744;SDS011;29359;53.048;8.732;2023-07-20T07:14:13;2.60;;;0.68;;
43744;SDS011;29359;53.048;8.732;2023-07-20T07:16:16;0.73;;;0.50;;
43744;SDS011;29359;53.048;8.732;2023-07-20T07:18:25;1.50;;;0.50;;
43744;SDS011;29359;53.048;8.732;2023-07-20T07:20:28;0.65;;;0.55;;
43744;SDS011;29359;53.048;8.732;2023-07-20T07:22:31;1.83;;;0.55;;
43744;SDS011;29359;53.048;8.732;2023-07-20T07:24:34;3.80;;;0.60;;
43744;SDS011;29359;53.048;8.732;2023-07-20T07:26:37;3.90;;;0.63;;
43744;SDS011;29359;53.048;8.732;2023-07-20T07:28:40;2.08;;;0.60;;
43744;SDS011;29359;53.048;8.732;2023-07-20T07:30:43;3.45;;;0.40;;
43744;SDS011;29359;53.048;8.732;2023-07-20T07:32:46;0.68;;;0.45;;
43744;SDS011;29359;53.048;8.732;2023-07-20T07:34:50;0.60;;;0.40;;
43744;SDS011;29359;53.048;8.732;2023-07-20T07:36:53;2.95;;;0.60;;
43744;SDS011;29359;53.048;8.732;2023-07-20T07:38:55;2.35;;;0.80;;
43744;SDS011;29359;53.048;8.732;2023-07-20T07:41:01;2.63;;;1.10;;
43744;SDS011;29359;53.048;8.732;2023-07-20T07:43:04;2.38;;;0.55;;
43744;SDS011;29359;53.048;8.732;2023-07-20T07:45:07;4.68;;;0.68;;
43744;SDS011;29359;53.048;8.732;2023-07-20T07:47:10;2.80;;;0.60;;
43744;SDS011;29359;53.048;8.732;2023-07-20T07:49:14;2.05;;;0.50;;
43744;SDS011;29359;53.048;8.732;2023-07-20T07:51:18;4.45;;;0.50;;
43744;SDS011;29359;53.048;8.732;2023-07-20T07:53:21;3.05;;;0.43;;
43744;SDS011;29359;53.048;8.732;2023-07-20T07:55:24;1.08;;;0.50;;
43744;SDS011;29359;53.048;8.732;2023-07-20T07:57:27;4.25;;;0.60;;
43744;SDS011;29359;53.048;8.732;2023-07-20T07:59:30;3.60;;;0.88;;
43744;SDS011;29359;53.048;8.732;2023-07-20T08:01:37;1.42;;;0.55;;
43744;SDS011;29359;53.048;8.732;2023-07-20T08:03:40;3.45;;;0.50;;
43744;SDS011;29359;53.048;8.732;2023-07-20T08:05:43;4.68;;;0.75;;
43744;SDS011;29359;53.048;8.732;2023-07-20T08:07:47;2.78;;;0.65;;
43744;SDS011;29359;53.048;8.732;2023-07-20T08:09:50;2.17;;;0.60;;
43744;SDS011;29359;53.048;8.732;2023-07-20T08:11:53;1.40;;;0.70;;
43744;SDS011;29359;53.048;8.732;2023-07-20T08:13:56;2.40;;;0.65;;
43744;SDS011;29359;53.048;8.732;2023-07-20T08:15:58;1.38;;;0.70;;
43744;SDS011;29359;53.048;8.732;2023-07-20T08:18:03;2.25;;;0.63;;
43744;SDS011;29359;53.048;8.732;2023-07-20T08:20:07;3.03;;;0.63;;
43744;SDS011;29359;53.048;8.732;2023-07-20T08:22:12;2.05;;;0.93;;
43744;SDS011;29359;53.048;8.732;2023-07-20T08:24:17;3.80;;;0.57;;
43744;SDS011;29359;53.048;8.732;2023-07-20T08:26:20;2.78;;;0.77;;
43744;SDS011;29359;53.048;8.732;2023-07-20T08:28:24;1.20;;;0.70;;
43744;SDS011;29359;53.048;8.732;2023-07-20T08:30:38;2.40;;;0.70;;
43744;SDS011;29359;53.048;8.732;2023-07-20T08:32:42;2.08;;;0.75;;
43744;SDS011;29359;53.048;8.732;2023-07-20T08:34:45;4.47;;;0.90;;
43744;SDS011;29359;53.048;8.732;2023-07-20T08:36:48;2.05;;;0.60;;
43744;SDS011;29359;53.048;8.732;2023-07-20T08:38:51;0.57;;;0.47;;
43744;SDS011;29359;53.048;8.732;2023-07-20T08:40:55;2.15;;;0.70;;
43744;SDS011;29359;53.048;8.732;2023-07-20T08:43:01;1.67;;;0.75;;
43744;SDS011;29359;53.048;8.732;2023-07-20T08:45:05;2.90;;;0.75;;
43744;SDS011;29359;53.048;8.732;2023-07-20T08:47:10;1.67;;;0.70;;
43744;SDS011;29359;53.048;8.732;2023-07-20T08:49:16;1.30;;;0.70;;
43744;SDS011;29359;53.048;8.732;2023-07-20T08:51:19;4.70;;;0.52;;
43744;SDS011;29359;53.048;8.732;2023-07-20T08:53:24;1.88;;;1.00;;
43744;SDS011;29359;53.048;8.732;2023-07-20T08:55:27;1.08;;;0.60;;
43744;SDS011;29359;53.048;8.732;2023-07-20T08:57:32;1.85;;;0.88;;
43744;SDS011;29359;53.048;8.732;2023-07-20T08:59:36;5.10;;;1.20;;
43744;SDS011;29359;53.048;8.732;2023-07-20T09:01:40;1.52;;;0.65;;
43744;SDS011;29359;53.048;8.732;2023-07-20T09:03:42;3.30;;;0.95;;
43744;SDS011;29359;53.048;8.732;2023-07-20T09:05:47;1.83;;;0.90;;
43744;SDS011;29359;53.048;8.732;2023-07-20T09:07:51;1.58;;;0.80;;
43744;SDS011;29359;53.048;8.732;2023-07-20T09:09:56;2.83;;;1.13;;
43744;SDS011;29359;53.048;8.732;2023-07-20T09:11:59;3.60;;;0.80;;
43744;SDS011;29359;53.048;8.732;2023-07-20T09:14:04;3.80;;;0.85;;
43744;SDS011;29359;53.048;8.732;2023-07-20T09:16:08;4.32;;;0.70;;
43744;SDS011;29359;53.048;8.732;2023-07-20T09:18:12;1.63;;;0.73;;
43744;SDS011;29359;53.048;8.732;2023-07-20T09:20:25;1.00;;;0.70;;
43744;SDS011;29359;53.048;8.732;2023-07-20T09:22:29;0.65;;;0.50;;
43744;SDS011;29359;53.048;8.732;2023-07-20T09:24:32;1.98;;;0.70;;
43744;SDS011;29359;53.048;8.732;2023-07-20T09:26:40;1.23;;;0.80;;
43744;SDS011;29359;53.048;8.732;2023-07-20T09:28:43;1.55;;;0.70;;
43744;SDS011;29359;53.048;8.732;2023-07-20T09:30:51;2.25;;;0.90;;
43744;SDS011;29359;53.048;8.732;2023-07-20T09:32:54;0.77;;;0.70;;
43744;SDS011;29359;53.048;8.732;2023-07-20T09:34:57;4.60;;;0.82;;
43744;SDS011;29359;53.048;8.732;2023-07-20T09:37:20;1.23;;;0.90;;
43744;SDS011;29359;53.048;8.732;2023-07-20T09:39:24;2.17;;;0.70;;
43744;SDS011;29359;53.048;8.732;2023-07-20T09:41:30;2.50;;;0.98;;
43744;SDS011;29359;53.048;8.732;2023-07-20T09:43:47;2.33;;;0.80;;
43744;SDS011;29359;53.048;8.732;2023-07-20T09:45:52;2.10;;;0.70;;
43744;SDS011;29359;53.048;8.732;2023-07-20T09:48:03;3.20;;;0.60;;
43744;SDS011;29359;53.048;8.732;2023-07-20T09:50:09;2.05;;;0.60;;
43744;SDS011;29359;53.048;8.732;2023-07-20T09:52:15;2.38;;;0.98;;
43744;SDS011;29359;53.048;8.732;2023-07-20T09:54:39;3.72;;;0.68;;
43744;SDS011;29359;53.048;8.732;2023-07-20T09:56:42;1.88;;;0.65;;
43744;SDS011;29359;53.048;8.732;2023-07-20T09:58:46;1.50;;;0.77;;
43744;SDS011;29359;53.048;8.732;2023-07-20T10:00:50;4.68;;;0.55;;
43744;SDS011;29359;53.048;8.732;2023-07-20T10:05:04;2.88;;;0.77;;
43744;SDS011;29359;53.048;8.732;2023-07-20T10:07:08;5.18;;;0.70;;
43744;SDS011;29359;53.048;8.732;2023-07-20T10:09:12;2.10;;;0.90;;
43744;SDS011;29359;53.048;8.732;2023-07-20T10:11:17;0.98;;;0.70;;
43744;SDS011;29359;53.048;8.732;2023-07-20T10:13:21;1.45;;;0.70;;
43744;SDS011;29359;53.048;8.732;2023-07-20T10:15:29;1.00;;;0.70;;
43744;SDS011;29359;53.048;8.732;2023-07-20T10:17:39;3.78;;;0.85;;
43744;SDS011;29359;53.048;8.732;2023-07-20T10:19:51;2.30;;;0.82;;
43744;SDS011;29359;53.048;8.732;2023-07-20T10:22:00;8.25;;;1.08;;
43744;SDS011;29359;53.048;8.732;2023-07-20T10:24:10;2.03;;;1.10;;
43744;SDS011;29359;53.048;8.732;2023-07-20T10:26:14;1.70;;;1.00;;
43744;SDS011;29359;53.048;8.732;2023-07-20T10:28:17;1.33;;;1.10;;
43744;SDS011;29359;53.048;8.732;2023-07-20T10:30:19;3.45;;;1.10;;
43744;SDS011;29359;53.048;8.732;2023-07-20T10:32:23;1.35;;;1.00;;
43744;SDS011;29359;53.048;8.732;2023-07-20T10:34:27;1.58;;;0.90;;
43744;SDS011;29359;53.048;8.732;2023-07-20T10:36:30;1.98;;;1.25;;
43744;SDS011;29359;53.048;8.732;2023-07-20T10:38:39;3.45;;;1.38;;
43744;SDS011;29359;53.048;8.732;2023-07-20T10:40:43;1.92;;;0.93;;
43744;SDS011;29359;53.048;8.732;2023-07-20T10:42:57;6.30;;;1.42;;
43744;SDS011;29359;53.048;8.732;2023-07-20T10:45:02;2.15;;;1.20;;
43744;SDS011;29359;53.048;8.732;2023-07-20T10:47:09;2.83;;;1.13;;
43744;SDS011;29359;53.048;8.732;2023-07-20T10:49:14;4.47;;;0.95;;
43744;SDS011;29359;53.048;8.732;2023-07-20T10:51:20;2.13;;;1.17;;
43744;SDS011;29359;53.048;8.732;2023-07-20T10:53:23;3.17;;;1.08;;
43744;SDS011;29359;53.048;8.732;2023-07-20T10:55:27;3.03;;;1.10;;
43744;SDS011;29359;53.048;8.732;2023-07-20T10:57:29;2.00;;;0.98;;
43744;SDS011;29359;53.048;8.732;2023-07-20T10:59:36;4.55;;;1.08;;
43744;SDS011;29359;53.048;8.732;2023-07-20T11:01:40;6.05;;;1.40;;
43744;SDS011;29359;53.048;8.732;2023-07-20T11:03:48;4.35;;;1.00;;
43744;SDS011;29359;53.048;8.732;2023-07-20T11:05:54;2.85;;;0.98;;
43744;SDS011;29359;53.048;8.732;2023-07-20T11:08:04;1.38;;;0.80;;
43744;SDS011;29359;53.048;8.732;2023-07-20T11:10:14;3.13;;;0.93;;
43744;SDS011;29359;53.048;8.732;2023-07-20T11:12:20;1.98;;;0.57;;
43744;SDS011;29359;53.048;8.732;2023-07-20T11:14:23;2.42;;;0.93;;
43744;SDS011;29359;53.048;8.732;2023-07-20T11:18:52;2.70;;;0.90;;
43744;SDS011;29359;53.048;8.732;2023-07-20T11:20:56;1.17;;;0.80;;
43744;SDS011;29359;53.048;8.732;2023-07-20T11:22:59;3.22;;;0.85;;
43744;SDS011;29359;53.048;8.732;2023-07-20T11:25:04;2.25;;;0.80;;
43744;SDS011;29359;53.048;8.732;2023-07-20T11:27:07;2.13;;;1.00;;
43744;SDS011;29359;53.048;8.732;2023-07-20T11:29:10;2.92;;;1.20;;
43744;SDS011;29359;53.048;8.732;2023-07-20T11:31:29;4.53;;;0.90;;
43744;SDS011;29359;53.048;8.732;2023-07-20T11:33:34;3.20;;;1.52;;
43744;SDS011;29359;53.048;8.732;2023-07-20T11:35:41;2.83;;;1.10;;
43744;SDS011;29359;53.048;8.732;2023-07-20T11:37:46;5.00;;;0.90;;
43744;SDS011;29359;53.048;8.732;2023-07-20T11:39:49;3.55;;;0.93;;
43744;SDS011;29359;53.048;8.732;2023-07-20T11:41:59;2.85;;;1.10;;
43744;SDS011;29359;53.048;8.732;2023-07-20T11:44:02;2.30;;;1.00;;
43744;SDS011;29359;53.048;8.732;2023-07-20T11:46:05;3.22;;;0.98;;
43744;SDS011;29359;53.048;8.732;2023-07-20T11:48:13;0.80;;;0.70;;
43744;SDS011;29359;53.048;8.732;2023-07-20T11:50:17;2.55;;;0.88;;
43744;SDS011;29359;53.048;8.732;2023-07-20T11:52:19;2.20;;;0.70;;
43744;SDS011;29359;53.048;8.732;2023-07-20T11:54:23;4.10;;;1.10;;
43744;SDS011;29359;53.048;8.732;2023-07-20T11:56:26;1.50;;;0.60;;
43744;SDS011;29359;53.048;8.732;2023-07-20T11:58:31;1.38;;;0.77;;
43744;SDS011;29359;53.048;8.732;2023-07-20T12:00:33;3.38;;;0.70;;
43744;SDS011;29359;53.048;8.732;2023-07-20T12:02:37;1.95;;;0.70;;
43744;SDS011;29359;53.048;8.732;2023-07-20T12:04:41;1.73;;;0.60;;
43744;SDS011;29359;53.048;8.732;2023-07-20T12:06:44;3.13;;;0.77;;
43744;SDS011;29359;53.048;8.732;2023-07-20T12:08:47;4.13;;;1.02;;
43744;SDS011;29359;53.048;8.732;2023-07-20T12:10:50;2.45;;;0.80;;
43744;SDS011;29359;53.048;8.732;2023-07-20T12:12:53;1.25;;;0.45;;
43744;SDS011;29359;53.048;8.732;2023-07-20T12:17:25;3.30;;;0.40;;
43744;SDS011;29359;53.048;8.732;2023-07-20T12:19:28;5.00;;;0.95;;
43744;SDS011;29359;53.048;8.732;2023-07-20T12:21:30;1.27;;;0.60;;
43744;SDS011;29359;53.048;8.732;2023-07-20T12:23:40;5.10;;;0.55;;
43744;SDS011;29359;53.048;8.732;2023-07-20T12:25:44;1.67;;;0.77;;
43744;SDS011;29359;53.048;8.732;2023-07-20T12:27:49;1.73;;;0.50;;
43744;SDS011;29359;53.048;8.732;2023-07-20T12:29:50;0.73;;;0.30;;
43744;SDS011;29359;53.048;8.732;2023-07-20T12:31:53;2.55;;;0.50;;
43744;SDS011;29359;53.048;8.732;2023-07-20T12:33:57;1.10;;;0.35;;
43744;SDS011;29359;53.048;8.732;2023-07-20T12:36:00;2.20;;;0.45;;
43744;SDS011;29359;53.048;8.732;2023-07-20T12:38:03;1.48;;;0.50;;
43744;SDS011;29359;53.048;8.732;2023-07-20T12:40:07;1.40;;;0.52;;